createdAt,value
2023-01-13T00:01:16.182Z,39.63
2023-01-13T00:03:43.094Z,30.70
2023-01-13T00:06:12.627Z,35.65
2023-01-13T00:08:39.488Z,21.92
2023-01-13T00:11:06.341Z,22.02
2023-01-13T00:13:35.442Z,31.73
2023-01-13T00:16:07.325Z,20.77
2023-01-13T00:18:34.357Z,22.35
2023-01-13T00:21:01.930Z,20.92
2023-01-13T00:23:29.212Z,28.45
2023-01-13T00:25:59.841Z,23.42
2023-01-13T00:28:26.719Z,37.17
2023-01-13T00:30:53.675Z,32.63
2023-01-13T00:33:20.587Z,30.65
2023-01-13T00:35:56.623Z,24.65
2023-01-13T00:38:23.508Z,22.02
2023-01-13T00:41:01.152Z,25.80
2023-01-13T00:43:28.137Z,21.90
2023-01-13T00:45:55.009Z,21.65
2023-01-13T00:48:22.600Z,24.20
2023-01-13T00:50:56.781Z,21.98
2023-01-13T00:53:23.721Z,26.67
2023-01-13T00:55:50.483Z,22.50
2023-01-13T00:58:17.260Z,21.60
2023-01-13T01:00:44.135Z,20.90
2023-01-13T01:03:12.386Z,22.40
2023-01-13T01:05:42.096Z,19.42
2023-01-13T01:08:08.951Z,25.05
2023-01-13T01:10:35.690Z,16.42
2023-01-13T01:13:02.429Z,25.90
2023-01-13T01:15:29.273Z,22.52
2023-01-13T01:17:56.006Z,18.90
2023-01-13T01:20:22.756Z,20.58
2023-01-13T01:22:49.590Z,19.02
2023-01-13T01:25:16.364Z,20.95
2023-01-13T01:27:43.127Z,16.60
2023-01-13T01:30:10.812Z,28.85
2023-01-13T01:32:37.550Z,22.85
2023-01-13T01:35:05.033Z,23.40
2023-01-13T01:37:31.876Z,19.50
2023-01-13T01:39:58.619Z,23.17
2023-01-13T01:42:44.447Z,19.92
2023-01-13T01:45:17.948Z,21.30
2023-01-13T01:47:45.506Z,16.70
2023-01-13T01:50:12.299Z,24.52
2023-01-13T01:52:41.583Z,16.30
2023-01-13T01:55:15.622Z,20.75
2023-01-13T01:58:05.310Z,23.98
2023-01-13T02:00:32.255Z,15.63
2023-01-13T02:02:59.010Z,14.48
2023-01-13T02:05:25.890Z,14.82
2023-01-13T02:07:53.864Z,22.02
2023-01-13T02:10:22.390Z,23.50
2023-01-13T02:12:49.237Z,18.63
2023-01-13T02:15:23.969Z,21.17
2023-01-13T02:18:11.850Z,19.65
2023-01-13T02:21:05.578Z,23.98
2023-01-13T02:24:09.267Z,18.23
2023-01-13T02:27:03.556Z,14.00
2023-01-13T02:30:19.098Z,14.40
2023-01-13T02:33:10.669Z,16.30
2023-01-13T02:35:40.148Z,17.17
2023-01-13T02:38:06.908Z,23.58
2023-01-13T02:40:37.333Z,17.60
2023-01-13T02:43:42.526Z,16.33
2023-01-13T02:46:18.234Z,20.80
2023-01-13T02:48:45.968Z,30.63
2023-01-13T02:51:15.409Z,21.52
2023-01-13T02:53:48.351Z,22.35
2023-01-13T02:56:15.427Z,22.38
2023-01-13T02:58:42.259Z,25.27
2023-01-13T03:01:09.197Z,21.83
2023-01-13T03:03:36.744Z,30.30
2023-01-13T03:06:14.277Z,22.50
2023-01-13T03:08:46.809Z,31.67
2023-01-13T03:11:14.391Z,15.23
2023-01-13T03:13:50.254Z,19.40
2023-01-13T03:16:35.435Z,25.60
2023-01-13T03:19:27.035Z,25.38
2023-01-13T03:21:57.300Z,24.08
2023-01-13T03:24:42.537Z,16.55
2023-01-13T03:27:16.974Z,21.88
2023-01-13T03:29:46.865Z,23.63
2023-01-13T03:34:53.670Z,22.48
2023-01-13T03:37:22.452Z,25.85
2023-01-13T03:39:52.573Z,23.65
2023-01-13T03:42:22.969Z,28.48
2023-01-13T03:44:57.764Z,16.55
2023-01-13T03:47:42.033Z,17.13
2023-01-13T03:50:18.802Z,25.70
2023-01-13T03:53:03.317Z,27.15
2023-01-13T03:55:32.535Z,22.23
2023-01-13T03:58:23.975Z,21.17
2023-01-13T04:00:52.114Z,32.03
2023-01-13T04:03:23.567Z,26.65
2023-01-13T04:05:52.492Z,31.77
2023-01-13T04:08:20.542Z,21.27
2023-01-13T04:10:59.600Z,24.30
2023-01-13T04:13:27.466Z,27.88
2023-01-13T04:15:54.235Z,24.05
2023-01-13T04:18:28.574Z,28.92
2023-01-13T04:20:57.210Z,29.85
2023-01-13T04:23:24.269Z,27.98
2023-01-13T04:25:51.277Z,29.63
2023-01-13T04:28:18.382Z,27.70
2023-01-13T04:30:45.435Z,31.73
2023-01-13T04:33:12.633Z,34.25
2023-01-13T04:35:39.516Z,35.78
2023-01-13T04:38:09.511Z,28.45
2023-01-13T04:40:36.404Z,30.77
2023-01-13T04:43:03.710Z,28.60
2023-01-13T04:45:30.921Z,23.73
2023-01-13T04:47:57.778Z,28.80
2023-01-13T04:50:24.755Z,24.65
2023-01-13T04:52:51.795Z,28.33
2023-01-13T04:55:19.239Z,27.73
2023-01-13T04:57:46.045Z,32.45
2023-01-13T05:00:14.306Z,25.77
2023-01-13T05:02:41.133Z,31.00
2023-01-13T05:05:08.278Z,27.35
2023-01-13T05:07:35.059Z,23.33
2023-01-13T05:10:01.984Z,28.85
2023-01-13T05:12:47.409Z,32.08
2023-01-13T05:15:33.186Z,27.83
2023-01-13T05:18:00.245Z,23.55
2023-01-13T05:20:27.096Z,25.75
2023-01-13T05:23:12.513Z,30.33
2023-01-13T05:25:41.854Z,26.58
2023-01-13T05:28:10.318Z,23.65
2023-01-13T05:30:44.470Z,17.58
2023-01-13T05:33:11.766Z,18.98
2023-01-13T05:35:39.795Z,18.65
2023-01-13T05:38:06.755Z,27.23
2023-01-13T05:40:52.090Z,27.75
2023-01-13T05:43:20.158Z,27.90
2023-01-13T05:45:59.061Z,29.70
2023-01-13T05:48:39.262Z,27.83
2023-01-13T05:51:07.167Z,32.15
2023-01-13T05:53:33.986Z,38.15
2023-01-13T05:56:00.902Z,33.20
2023-01-13T05:58:27.881Z,22.88
2023-01-13T06:01:00.150Z,30.08
2023-01-13T06:03:27.150Z,21.90
2023-01-13T06:05:58.831Z,28.65
2023-01-13T06:08:25.924Z,33.55
2023-01-13T06:10:52.767Z,26.33
2023-01-13T06:13:19.692Z,17.88
2023-01-13T06:15:46.497Z,19.33
2023-01-13T06:18:13.314Z,24.00
2023-01-13T06:20:40.236Z,22.08
2023-01-13T06:23:08.918Z,15.95
2023-01-13T06:25:55.965Z,12.65
2023-01-13T06:28:22.800Z,24.83
2023-01-13T06:30:50.928Z,23.88
2023-01-13T06:33:20.057Z,17.52
2023-01-13T06:35:50.669Z,22.02
2023-01-13T06:38:17.597Z,32.35
2023-01-13T06:40:44.535Z,29.67
2023-01-13T06:43:17.653Z,14.43
2023-01-13T06:45:55.766Z,20.33
2023-01-13T06:48:24.384Z,18.65
2023-01-13T06:50:51.249Z,21.92
2023-01-13T06:53:18.221Z,22.48
2023-01-13T06:55:44.981Z,13.40
2023-01-13T06:58:11.858Z,17.45
2023-01-13T07:00:38.800Z,15.93
2023-01-13T07:03:09.937Z,17.90
2023-01-13T07:05:36.873Z,14.60
2023-01-13T07:08:03.827Z,13.30
2023-01-13T07:10:31.036Z,15.00
2023-01-13T07:13:19.180Z,15.70
2023-01-13T07:16:02.802Z,26.15
2023-01-13T07:18:31.933Z,18.75
2023-01-13T07:21:03.208Z,27.55
2023-01-13T07:23:34.819Z,16.35
2023-01-13T07:26:01.828Z,17.02
2023-01-13T07:28:29.367Z,28.65
2023-01-13T07:30:56.503Z,18.50
2023-01-13T07:33:23.760Z,16.25
2023-01-13T07:36:02.752Z,11.07
2023-01-13T07:38:29.633Z,17.87
2023-01-13T07:40:56.439Z,14.77
2023-01-13T07:43:32.497Z,10.60
2023-01-13T07:46:03.223Z,13.13
2023-01-13T07:48:30.464Z,15.32
2023-01-13T07:50:57.353Z,16.13
2023-01-13T07:53:27.087Z,13.05
2023-01-13T07:55:57.866Z,13.23
2023-01-13T07:58:25.530Z,12.93
2023-01-13T08:00:52.728Z,10.73
2023-01-13T08:03:19.767Z,14.32
2023-01-13T08:05:46.887Z,22.48
2023-01-13T08:08:13.937Z,18.45
2023-01-13T08:10:40.830Z,15.25
2023-01-13T08:13:21.046Z,13.23
2023-01-13T08:15:49.826Z,16.77
2023-01-13T08:18:18.063Z,15.50
2023-01-13T08:20:44.895Z,12.43
2023-01-13T08:23:11.716Z,22.67
2023-01-13T08:25:38.676Z,21.08
2023-01-13T08:28:05.608Z,13.05
2023-01-13T08:30:32.542Z,20.80
2023-01-13T08:32:59.348Z,18.42
2023-01-13T08:35:26.145Z,13.75
2023-01-13T08:37:53.080Z,15.43
2023-01-13T08:40:21.024Z,21.92
2023-01-13T08:42:48.764Z,14.52
2023-01-13T08:45:15.937Z,14.13
2023-01-13T08:47:42.743Z,22.45
2023-01-13T08:50:09.847Z,23.48
2023-01-13T08:52:36.792Z,20.15
2023-01-13T08:55:03.649Z,16.58
2023-01-13T08:57:30.564Z,18.63
2023-01-13T08:59:57.520Z,19.67
2023-01-13T09:02:24.694Z,12.27
2023-01-13T09:04:51.791Z,17.48
2023-01-13T09:07:18.823Z,16.42
2023-01-13T09:09:45.861Z,15.70
2023-01-13T09:12:32.769Z,17.73
2023-01-13T09:14:59.807Z,15.40
2023-01-13T09:17:27.447Z,25.10
2023-01-13T09:19:54.359Z,16.92
2023-01-13T09:22:21.263Z,21.33
2023-01-13T09:24:48.057Z,19.40
2023-01-13T09:27:15.303Z,14.57
2023-01-13T09:29:42.221Z,20.23
2023-01-13T09:32:12.463Z,18.08
2023-01-13T09:34:57.894Z,15.63
2023-01-13T09:37:24.722Z,16.55
2023-01-13T09:39:51.531Z,17.30
2023-01-13T09:42:52.673Z,20.15
2023-01-13T09:45:24.016Z,17.58
2023-01-13T09:47:52.843Z,17.05
2023-01-13T09:50:30.776Z,17.07
2023-01-13T09:52:57.856Z,15.57
2023-01-13T09:55:28.932Z,19.35
2023-01-13T09:57:55.727Z,18.67
2023-01-13T10:00:24.651Z,20.33
2023-01-13T10:03:16.019Z,17.88
2023-01-13T10:05:44.733Z,15.25
2023-01-13T10:08:12.948Z,22.10
2023-01-13T10:10:47.337Z,18.30
2023-01-13T10:13:28.326Z,16.42
2023-01-13T10:15:58.021Z,19.35
2023-01-13T10:21:31.327Z,16.58
2023-01-13T10:24:27.474Z,13.75
2023-01-13T10:27:14.934Z,21.77
2023-01-13T10:29:41.717Z,24.77
2023-01-13T10:32:08.818Z,20.88
2023-01-13T10:34:50.978Z,22.50
2023-01-13T10:37:28.768Z,17.27
2023-01-13T10:39:57.147Z,14.35
2023-01-13T10:42:24.285Z,14.50
2023-01-13T10:44:53.077Z,15.27
2023-01-13T10:47:34.030Z,15.18
2023-01-13T10:50:09.350Z,13.93
2023-01-13T10:52:38.491Z,17.10
2023-01-13T10:55:25.734Z,15.43
2023-01-13T10:57:56.784Z,15.10
2023-01-13T11:00:30.708Z,14.32
2023-01-13T11:03:22.522Z,13.30
2023-01-13T11:05:54.367Z,12.73
2023-01-13T11:08:23.835Z,13.65
2023-01-13T11:13:25.388Z,14.98
2023-01-13T11:16:09.729Z,14.80
2023-01-13T11:18:52.093Z,13.55
2023-01-13T11:21:24.860Z,10.73
2023-01-13T11:24:01.566Z,13.43
2023-01-13T11:26:39.217Z,13.80
2023-01-13T11:29:15.493Z,12.10
2023-01-13T11:31:44.968Z,11.05
2023-01-13T11:36:53.507Z,13.73
2023-01-13T11:39:20.842Z,15.20
2023-01-13T11:42:08.123Z,14.02
2023-01-13T11:45:06.598Z,13.52
2023-01-13T11:47:33.646Z,14.97
2023-01-13T11:50:00.543Z,15.60
2023-01-13T11:52:33.939Z,13.88
2023-01-13T11:55:22.834Z,12.70
2023-01-13T11:57:52.899Z,13.32
2023-01-13T12:00:19.588Z,15.57
2023-01-13T12:02:49.341Z,12.20
2023-01-13T12:05:36.632Z,11.75
2023-01-13T12:08:10.970Z,15.57
2023-01-13T12:10:51.881Z,11.45
2023-01-13T12:13:45.296Z,12.70
2023-01-13T12:16:25.772Z,13.30
2023-01-13T12:19:17.003Z,12.70
2023-01-13T12:22:10.182Z,12.20
2023-01-13T12:24:39.983Z,13.10
2023-01-13T12:27:14.245Z,12.88
2023-01-13T12:29:41.065Z,13.43
2023-01-13T12:32:21.175Z,14.13
2023-01-13T12:35:09.870Z,12.27
2023-01-13T12:37:45.052Z,14.00
2023-01-13T12:40:14.500Z,12.15
2023-01-13T12:43:02.395Z,12.68
2023-01-13T12:45:30.269Z,11.80
2023-01-13T12:47:57.655Z,12.00
2023-01-13T12:50:27.332Z,11.55
2023-01-13T12:52:58.212Z,12.13
2023-01-13T12:55:34.708Z,12.27
2023-01-13T12:58:10.556Z,12.25
2023-01-13T13:00:40.419Z,12.18
2023-01-13T13:03:18.615Z,14.77
2023-01-13T13:06:11.125Z,11.73
2023-01-13T13:08:45.180Z,14.70
2023-01-13T13:11:33.757Z,15.10
2023-01-13T13:14:01.469Z,12.73
2023-01-13T13:16:30.944Z,14.48
2023-01-13T13:19:19.607Z,12.13
2023-01-13T13:22:14.497Z,12.75
2023-01-13T13:24:46.720Z,12.30
2023-01-13T13:27:17.627Z,12.20
2023-01-13T13:29:53.053Z,11.55
2023-01-13T13:32:41.728Z,12.48
2023-01-13T13:35:40.530Z,11.77
2023-01-13T13:38:44.215Z,10.75
2023-01-13T13:41:35.443Z,11.32
2023-01-13T13:44:22.434Z,11.88
2023-01-13T13:46:49.630Z,11.93
2023-01-13T13:49:20.447Z,11.77
2023-01-13T13:52:01.962Z,11.10
2023-01-13T13:54:28.816Z,11.52
2023-01-13T13:56:55.599Z,12.18
2023-01-13T13:59:27.080Z,11.65
2023-01-13T14:02:02.141Z,10.85
2023-01-13T14:04:34.176Z,11.95
2023-01-13T14:07:16.272Z,11.57
2023-01-13T14:09:45.740Z,11.30
2023-01-13T14:12:23.094Z,11.52
2023-01-13T14:14:50.941Z,10.93
2023-01-13T14:17:28.564Z,13.48
2023-01-13T14:20:05.384Z,10.80
2023-01-13T14:22:32.658Z,10.48
2023-01-13T14:25:00.758Z,11.35
2023-01-13T14:27:28.635Z,9.73
2023-01-13T14:29:56.290Z,12.40
2023-01-13T14:32:24.666Z,10.55
2023-01-13T14:34:51.938Z,12.35
2023-01-13T14:37:33.804Z,9.95
2023-01-13T14:40:00.661Z,11.65
2023-01-13T14:42:28.744Z,10.45
2023-01-13T14:44:56.393Z,12.40
2023-01-13T14:47:28.243Z,10.57
2023-01-13T14:50:03.236Z,10.88
2023-01-13T14:52:32.157Z,10.90
2023-01-13T14:55:04.740Z,12.52
2023-01-13T14:57:32.622Z,10.77
2023-01-13T15:00:25.740Z,12.20
2023-01-13T15:02:58.524Z,11.38
2023-01-13T15:05:28.043Z,10.32
2023-01-13T15:08:00.933Z,12.80
2023-01-13T15:10:55.242Z,11.52
2023-01-13T15:13:41.016Z,13.25
2023-01-13T15:16:20.805Z,9.80
2023-01-13T15:18:47.948Z,11.23
2023-01-13T15:21:15.862Z,10.13
2023-01-13T15:23:42.936Z,11.65
2023-01-13T15:26:19.003Z,8.70
2023-01-13T15:28:45.987Z,9.88
2023-01-13T15:31:12.780Z,9.20
2023-01-13T15:33:39.846Z,8.88
2023-01-13T15:36:09.785Z,9.30
2023-01-13T15:38:36.563Z,8.77
2023-01-13T15:41:03.437Z,8.90
2023-01-13T15:43:48.955Z,9.10
2023-01-13T15:46:35.636Z,8.60
2023-01-13T15:49:10.049Z,10.60
2023-01-13T15:51:37.442Z,9.85
2023-01-13T15:54:04.644Z,11.93
2023-01-13T15:56:31.464Z,7.68
2023-01-13T15:58:58.367Z,8.48
2023-01-13T16:01:25.284Z,8.32
2023-01-13T16:03:52.401Z,9.68
2023-01-13T16:06:29.166Z,8.95
2023-01-13T16:08:56.094Z,8.80
2023-01-13T16:11:22.869Z,9.60
2023-01-13T16:13:49.778Z,11.50
2023-01-13T16:16:22.048Z,8.25
2023-01-13T16:18:49.331Z,8.98
2023-01-13T16:21:16.471Z,10.52
2023-01-13T16:23:43.444Z,9.25
2023-01-13T16:26:37.885Z,8.55
2023-01-13T16:29:06.197Z,11.10
2023-01-13T16:31:33.765Z,10.45
2023-01-13T16:34:01.377Z,10.88
2023-01-13T16:36:29.960Z,9.20
2023-01-13T16:38:57.128Z,8.73
2023-01-13T16:41:26.923Z,9.88
2023-01-13T16:46:25.518Z,9.10
2023-01-13T16:48:53.617Z,8.90
2023-01-13T16:51:21.061Z,11.13
2023-01-13T16:53:48.035Z,9.50
2023-01-13T16:56:20.628Z,10.50
2023-01-13T16:58:47.788Z,9.43
2023-01-13T17:01:27.977Z,9.23
2023-01-13T17:03:55.078Z,9.20
2023-01-13T17:06:24.790Z,10.30
2023-01-13T17:08:53.368Z,10.40
2023-01-13T17:11:20.658Z,9.10
2023-01-13T17:13:47.491Z,9.18
2023-01-13T17:16:21.999Z,9.32
2023-01-13T17:18:48.956Z,10.52
2023-01-13T17:21:16.338Z,9.52
2023-01-13T17:23:43.351Z,11.65
2023-01-13T17:26:37.395Z,11.63
2023-01-13T17:29:05.934Z,10.82
2023-01-13T17:31:32.894Z,10.23
2023-01-13T17:33:59.737Z,8.85
2023-01-13T17:36:26.623Z,15.98
2023-01-13T17:38:53.967Z,18.25
2023-01-13T17:41:20.753Z,25.10
2023-01-13T17:43:47.763Z,10.27
2023-01-13T17:46:19.367Z,11.68
2023-01-13T17:48:46.724Z,11.13
2023-01-13T17:51:14.739Z,10.18
2023-01-13T17:53:41.846Z,9.45
2023-01-13T17:56:09.803Z,11.15
2023-01-13T17:58:40.416Z,10.00
2023-01-13T18:01:11.411Z,13.38
2023-01-13T18:03:38.736Z,11.57
2023-01-13T18:06:06.554Z,12.75
2023-01-13T18:08:33.344Z,15.13
2023-01-13T18:11:00.888Z,12.50
2023-01-13T18:13:28.429Z,10.98
2023-01-13T18:16:13.144Z,10.70
2023-01-13T18:18:41.242Z,12.02
2023-01-13T18:21:26.791Z,12.55
2023-01-13T18:23:56.619Z,11.15
2023-01-13T18:29:08.963Z,14.50
2023-01-13T18:31:35.733Z,15.95
2023-01-13T18:34:02.490Z,13.65
2023-01-13T18:36:29.416Z,13.02
2023-01-13T18:38:57.669Z,16.27
2023-01-13T18:41:43.572Z,17.30
2023-01-13T18:44:10.298Z,13.85
2023-01-13T18:46:37.126Z,18.35
2023-01-13T18:49:04.039Z,12.30
2023-01-13T18:51:30.894Z,14.82
2023-01-13T18:53:57.661Z,17.05
2023-01-13T18:56:25.443Z,13.07
2023-01-13T18:58:53.344Z,11.50
2023-01-13T19:01:24.639Z,11.55
2023-01-13T19:03:58.423Z,13.00
2023-01-13T19:06:27.772Z,16.58
2023-01-13T19:08:55.769Z,14.27
2023-01-13T19:11:23.317Z,15.02
2023-01-13T19:13:50.851Z,10.32
2023-01-13T19:16:18.338Z,20.13
2023-01-13T19:18:45.514Z,17.33
2023-01-13T19:21:12.339Z,18.35
2023-01-13T19:23:39.198Z,17.65
2023-01-13T19:26:08.063Z,12.43
2023-01-13T19:28:35.583Z,18.37
2023-01-13T19:31:03.639Z,22.83
2023-01-13T19:33:32.293Z,23.08
2023-01-13T19:35:59.109Z,20.05
2023-01-13T19:38:26.137Z,15.48
2023-01-13T19:41:00.999Z,19.85
2023-01-13T19:43:46.243Z,15.30
2023-01-13T19:46:13.152Z,16.35
2023-01-13T19:48:40.195Z,21.70
2023-01-13T19:51:07.043Z,14.93
2023-01-13T19:53:33.914Z,16.33
2023-01-13T19:56:00.981Z,18.40
2023-01-13T19:58:29.207Z,14.40
2023-01-13T20:00:56.429Z,16.15
2023-01-13T20:03:25.151Z,14.80
2023-01-13T20:05:52.576Z,16.83
2023-01-13T20:08:20.209Z,17.83
2023-01-13T20:10:47.260Z,27.42
2023-01-13T20:13:14.572Z,19.90
2023-01-13T20:15:41.690Z,19.63
2023-01-13T20:18:08.729Z,19.02
2023-01-13T20:20:35.943Z,16.23
2023-01-13T20:23:02.880Z,21.15
2023-01-13T20:25:29.801Z,20.63
2023-01-13T20:27:56.732Z,21.05
2023-01-13T20:30:23.936Z,18.67
2023-01-13T20:32:50.970Z,19.83
2023-01-13T20:35:18.432Z,15.00
2023-01-13T20:37:45.298Z,18.52
2023-01-13T20:40:14.267Z,17.65
2023-01-13T20:42:49.941Z,14.45
2023-01-13T20:45:18.191Z,17.30
2023-01-13T20:47:45.292Z,17.05
2023-01-13T20:50:12.629Z,16.52
2023-01-13T20:52:39.426Z,16.65
2023-01-13T20:55:07.250Z,20.75
2023-01-13T20:57:34.466Z,16.65
2023-01-13T21:00:02.320Z,13.38
2023-01-13T21:02:29.193Z,19.98
2023-01-13T21:04:56.269Z,23.52
2023-01-13T21:07:23.087Z,14.13
2023-01-13T21:09:49.850Z,15.00
2023-01-13T21:12:35.726Z,11.57
2023-01-13T21:15:17.464Z,15.73
2023-01-13T21:18:03.353Z,11.20
2023-01-13T21:20:36.045Z,21.88
2023-01-13T21:23:03.227Z,13.38
2023-01-13T21:25:30.439Z,14.73
2023-01-13T21:28:05.723Z,14.50
2023-01-13T21:30:32.912Z,18.10
2023-01-13T21:33:00.940Z,7.85
2023-01-13T21:35:28.065Z,9.40
2023-01-13T21:37:57.086Z,13.68
2023-01-13T21:40:23.846Z,17.67
2023-01-13T21:43:09.083Z,8.75
2023-01-13T21:45:56.639Z,22.23
2023-01-13T21:48:23.518Z,10.57
2023-01-13T21:50:50.265Z,12.10
2023-01-13T21:53:17.001Z,19.00
2023-01-13T21:55:43.928Z,18.80
2023-01-13T21:58:14.054Z,20.50
2023-01-13T22:00:42.066Z,15.10
2023-01-13T22:03:09.580Z,11.75
2023-01-13T22:05:36.511Z,40.45
2023-01-13T22:08:03.586Z,18.10
2023-01-13T22:10:30.905Z,28.48
2023-01-13T22:12:59.399Z,18.90
2023-01-13T22:15:28.088Z,24.90
2023-01-13T22:17:55.348Z,35.42
2023-01-13T22:20:22.375Z,26.88
2023-01-13T22:22:49.480Z,22.58
2023-01-13T22:25:16.634Z,19.55
2023-01-13T22:27:44.879Z,22.65
2023-01-13T22:30:13.945Z,31.65
2023-01-13T22:32:40.851Z,17.88
2023-01-13T22:35:08.579Z,30.75
2023-01-13T22:37:35.452Z,14.77
2023-01-13T22:40:02.744Z,16.95
2023-01-13T22:42:29.596Z,22.88
2023-01-13T22:44:56.370Z,12.38
2023-01-13T22:47:23.302Z,16.50
2023-01-13T22:49:50.106Z,12.95
2023-01-13T22:52:17.435Z,14.73
2023-01-13T22:54:44.390Z,13.20
2023-01-13T22:57:11.426Z,22.02
2023-01-13T22:59:38.350Z,17.77
2023-01-13T23:02:05.224Z,23.40
2023-01-13T23:04:32.153Z,22.27
2023-01-13T23:07:00.076Z,18.17
2023-01-13T23:09:30.028Z,20.00
2023-01-13T23:14:26.260Z,15.65
2023-01-13T23:16:53.389Z,17.65
2023-01-13T23:19:20.264Z,12.88
2023-01-13T23:21:47.042Z,29.30
2023-01-13T23:24:14.006Z,17.23
2023-01-13T23:26:40.901Z,20.08
2023-01-13T23:29:09.681Z,27.17
2023-01-13T23:31:36.626Z,20.33
2023-01-13T23:34:03.415Z,18.88
2023-01-13T23:36:30.525Z,11.35
2023-01-13T23:38:58.478Z,14.68
2023-01-13T23:41:25.772Z,16.55
2023-01-13T23:43:59.641Z,24.42
2023-01-13T23:46:27.407Z,22.75
2023-01-13T23:48:55.575Z,15.65
2023-01-13T23:51:22.685Z,18.60
2023-01-13T23:53:50.155Z,18.40
2023-01-13T23:56:19.150Z,21.33
2023-01-13T23:58:46.320Z,19.27
